Kyra, Russia
Current Conditions -  °F | °C
As of 10:00 PM on Tuesday 21 Oct 2014 (Local Time) from UIAA Reporting Station
Clear Clear  
Wind Chill: 19°   Ceiling: Unl
Heat Index: 19°   Visibility: 6mi
Dew Point:   Wind: 2mph
Humidity: 63%   Direction: NA
Pressure: 30"   Gusts: NA
Location:  49.58°N, 111.97°E
Report Text: UIAA 211300Z VRB01MPS 9999 SKC M07/M13 Q1016 NOSIG RMK QFE70329CLRD70
Loading
Personal Weather Stations






























Interactive Weather Map
Tropical Storm Tracking
New forecast layout! Learn more

10-Day Weather Forecast

Advertisements
Track Severe Weather on mobile